createdAt,value
2018-08-12T00:00:51.773Z,1.80
2018-08-12T00:03:19.818Z,1.92
2018-08-12T00:05:47.860Z,1.90
2018-08-12T00:08:15.888Z,2.53
2018-08-12T00:10:43.926Z,2.03
2018-08-12T00:13:11.967Z,1.70
2018-08-12T00:15:40.170Z,1.73
2018-08-12T00:18:08.188Z,1.80
2018-08-12T00:20:36.213Z,2.10
2018-08-12T00:23:04.604Z,2.03
2018-08-12T00:25:32.660Z,1.83
2018-08-12T00:28:00.709Z,1.70
2018-08-12T00:30:28.743Z,2.30
2018-08-12T00:32:56.790Z,1.93
2018-08-12T00:35:24.807Z,2.27
2018-08-12T00:37:52.835Z,2.00
2018-08-12T00:40:21.005Z,1.80
2018-08-12T00:42:49.032Z,2.13
2018-08-12T00:45:19.338Z,2.27
2018-08-12T00:47:47.782Z,1.80
2018-08-12T00:50:16.520Z,2.30
2018-08-12T00:52:44.623Z,2.10
2018-08-12T00:55:14.745Z,2.03
2018-08-12T00:57:43.671Z,2.20
2018-08-12T01:00:15.545Z,2.30
2018-08-12T01:02:43.577Z,2.40
2018-08-12T01:05:13.553Z,2.47
2018-08-12T01:07:41.944Z,2.67
2018-08-12T01:10:10.793Z,2.47
2018-08-12T01:12:39.065Z,2.73
2018-08-12T01:15:10.551Z,2.53
2018-08-12T01:17:38.688Z,2.47
2018-08-12T01:20:08.077Z,4.00
2018-08-12T01:22:36.108Z,5.17
2018-08-12T01:25:05.948Z,3.58
2018-08-12T01:27:34.127Z,3.10
2018-08-12T01:30:02.164Z,4.23
2018-08-12T01:32:30.193Z,3.23
2018-08-12T01:34:58.228Z,2.70
2018-08-12T01:37:26.253Z,3.00
2018-08-12T01:39:54.285Z,2.60
2018-08-12T01:42:22.316Z,2.70
2018-08-12T01:44:50.377Z,3.43
2018-08-12T01:47:18.421Z,2.77
2018-08-12T01:49:46.774Z,3.50
2018-08-12T01:52:14.802Z,3.62
2018-08-12T01:54:42.834Z,3.00
2018-08-12T01:57:10.875Z,2.87
2018-08-12T01:59:38.905Z,3.73
2018-08-12T02:02:06.954Z,3.30
2018-08-12T02:04:34.994Z,3.20
2018-08-12T02:07:03.181Z,2.80
2018-08-12T02:09:37.773Z,3.33
2018-08-12T02:12:05.798Z,3.22
2018-08-12T02:14:33.836Z,3.03
2018-08-12T02:17:01.881Z,3.10
2018-08-12T02:19:29.930Z,3.00
2018-08-12T02:21:58.104Z,3.43
2018-08-12T02:24:26.128Z,3.40
2018-08-12T02:26:54.164Z,2.93
2018-08-12T02:29:22.196Z,3.63
2018-08-12T02:31:50.246Z,3.40
2018-08-12T02:34:18.289Z,4.40
2018-08-12T02:36:46.325Z,3.53
2018-08-12T02:39:14.374Z,3.30
2018-08-12T02:41:42.442Z,3.40
2018-08-12T02:44:17.124Z,3.43
2018-08-12T02:46:45.368Z,4.40
2018-08-12T02:49:13.440Z,5.57
2018-08-12T02:51:41.476Z,4.80
2018-08-12T02:54:09.516Z,5.27
2018-08-12T02:56:37.568Z,5.43
2018-08-12T02:59:05.650Z,4.63
2018-08-12T03:01:39.948Z,4.07
2018-08-12T03:04:07.989Z,4.53
2018-08-12T03:06:36.009Z,4.57
2018-08-12T03:09:08.197Z,4.22
2018-08-12T03:11:36.241Z,4.47
2018-08-12T03:14:05.432Z,4.60
2018-08-12T03:16:33.475Z,4.80
2018-08-12T03:19:01.507Z,5.23
2018-08-12T03:21:29.529Z,5.20
2018-08-12T03:23:57.630Z,4.93
2018-08-12T03:26:25.825Z,5.07
2018-08-12T03:28:53.870Z,5.43
2018-08-12T03:31:21.902Z,5.50
2018-08-12T03:33:49.956Z,6.13
2018-08-12T03:36:17.994Z,5.80
2018-08-12T03:38:46.046Z,6.40
2018-08-12T03:41:14.084Z,5.63
2018-08-12T03:43:42.136Z,6.17
2018-08-12T03:46:10.354Z,5.60
2018-08-12T03:48:38.413Z,5.40
2018-08-12T03:51:06.461Z,5.27
2018-08-12T03:53:34.829Z,4.95
2018-08-12T03:56:02.855Z,6.27
2018-08-12T03:58:30.892Z,5.23
2018-08-12T04:00:59.093Z,5.37
2018-08-12T04:03:27.098Z,5.30
2018-08-12T04:05:55.144Z,5.60
2018-08-12T04:08:23.185Z,4.97
2018-08-12T04:10:51.209Z,5.53
2018-08-12T04:13:19.229Z,5.03
2018-08-12T04:15:47.249Z,5.13
2018-08-12T04:18:15.273Z,5.53
2018-08-12T04:20:43.313Z,5.83
2018-08-12T04:23:11.371Z,5.33
2018-08-12T04:25:39.391Z,5.77
2018-08-12T04:28:07.416Z,6.57
2018-08-12T04:30:35.450Z,6.00
2018-08-12T04:33:03.831Z,6.77
2018-08-12T04:35:31.861Z,6.40
2018-08-12T04:37:59.868Z,7.27
2018-08-12T04:40:28.072Z,6.67
2018-08-12T04:42:56.104Z,6.67
2018-08-12T04:45:24.132Z,6.90
2018-08-12T04:47:52.148Z,8.13
2018-08-12T04:50:20.184Z,6.30
2018-08-12T04:52:48.217Z,7.60
2018-08-12T04:55:16.232Z,7.33
2018-08-12T04:57:44.252Z,6.70
2018-08-12T05:00:12.284Z,6.60
2018-08-12T05:02:40.316Z,6.13
2018-08-12T05:05:08.797Z,7.13
2018-08-12T05:07:36.820Z,6.13
2018-08-12T05:10:05.781Z,6.10
2018-08-12T05:12:34.092Z,6.00
2018-08-12T05:15:02.132Z,6.63
2018-08-12T05:17:30.204Z,6.80
2018-08-12T05:19:58.233Z,6.33
2018-08-12T05:22:26.248Z,6.30
2018-08-12T05:24:54.261Z,6.60
2018-08-12T05:27:22.292Z,6.47
2018-08-12T05:29:50.316Z,6.93
2018-08-12T05:32:18.336Z,6.60
2018-08-12T05:34:46.508Z,7.40
2018-08-12T05:37:14.527Z,6.40
2018-08-12T05:39:42.568Z,5.53
2018-08-12T05:42:10.732Z,5.75
2018-08-12T05:44:38.772Z,6.33
2018-08-12T05:47:06.789Z,6.67
2018-08-12T05:49:35.098Z,6.53
2018-08-12T05:52:03.125Z,6.60
2018-08-12T05:54:31.161Z,6.53
2018-08-12T05:56:59.214Z,6.07
2018-08-12T05:59:27.252Z,5.73
2018-08-12T06:01:55.309Z,7.00
2018-08-12T06:04:23.352Z,7.10
2018-08-12T06:06:51.548Z,6.97
2018-08-12T06:09:19.573Z,6.87
2018-08-12T06:11:47.600Z,7.70
2018-08-12T06:14:15.809Z,7.00
2018-08-12T06:16:43.849Z,7.40
2018-08-12T06:19:11.874Z,6.70
2018-08-12T06:21:39.918Z,7.33
2018-08-12T06:24:07.967Z,7.20
2018-08-12T06:26:36.250Z,7.20
2018-08-12T06:29:05.005Z,7.50
2018-08-12T06:31:33.084Z,7.27
2018-08-12T06:34:01.102Z,7.27
2018-08-12T06:36:29.141Z,8.03
2018-08-12T06:38:57.277Z,7.90
2018-08-12T06:41:25.597Z,8.57
2018-08-12T06:43:53.634Z,7.60
2018-08-12T06:46:21.713Z,7.60
2018-08-12T06:48:49.720Z,7.73
2018-08-12T06:51:17.777Z,8.03
2018-08-12T06:53:45.808Z,6.90
2018-08-12T06:56:13.845Z,7.70
2018-08-12T06:58:41.885Z,7.27
2018-08-12T07:01:09.929Z,7.40
2018-08-12T07:03:38.232Z,7.00
2018-08-12T07:06:06.267Z,7.70
2018-08-12T07:08:34.552Z,7.00
2018-08-12T07:11:02.593Z,7.67
2018-08-12T07:13:30.844Z,7.23
2018-08-12T07:15:58.881Z,6.60
2018-08-12T07:18:27.025Z,7.27
2018-08-12T07:20:55.070Z,7.47
2018-08-12T07:23:23.105Z,7.53
2018-08-12T07:25:51.134Z,7.33
2018-08-12T07:28:19.273Z,7.90
2018-08-12T07:30:47.309Z,7.60
2018-08-12T07:33:15.496Z,8.43
2018-08-12T07:35:43.536Z,7.40
2018-08-12T07:38:11.577Z,7.45
2018-08-12T07:40:39.645Z,6.53
2018-08-12T07:43:07.693Z,7.27
2018-08-12T07:45:35.721Z,7.27
2018-08-12T07:48:03.821Z,7.63
2018-08-12T07:50:31.868Z,7.73
2018-08-12T07:52:59.921Z,8.60
2018-08-12T07:55:27.996Z,7.77
2018-08-12T07:57:56.408Z,6.77
2018-08-12T08:00:24.445Z,8.10
2018-08-12T08:02:52.481Z,8.50
2018-08-12T08:05:20.530Z,6.05
2018-08-12T08:07:48.564Z,6.57
2018-08-12T08:10:17.574Z,7.17
2018-08-12T08:12:45.849Z,6.10
2018-08-12T08:15:20.380Z,6.28
2018-08-12T08:17:48.645Z,6.27
2018-08-12T08:20:16.927Z,6.03
2018-08-12T08:22:45.449Z,6.80
2018-08-12T08:25:13.699Z,5.80
2018-08-12T08:27:41.771Z,6.12
2018-08-12T08:30:12.465Z,6.37
2018-08-12T08:32:40.852Z,6.13
2018-08-12T08:35:09.344Z,6.65
2018-08-12T08:37:37.555Z,5.30
2018-08-12T08:40:10.384Z,6.00
2018-08-12T08:42:38.442Z,5.27
2018-08-12T08:45:12.672Z,6.13
2018-08-12T08:47:40.715Z,4.73
2018-08-12T08:50:08.928Z,4.23
2018-08-12T08:52:37.512Z,5.33
2018-08-12T08:55:06.499Z,4.27
2018-08-12T08:57:34.556Z,4.10
2018-08-12T09:00:02.644Z,4.20
2018-08-12T09:02:31.032Z,5.00
2018-08-12T09:04:59.052Z,4.17
2018-08-12T09:07:27.100Z,3.40
2018-08-12T09:09:55.361Z,4.03
2018-08-12T09:12:23.411Z,3.30
2018-08-12T09:14:51.456Z,4.20
2018-08-12T09:17:19.602Z,4.75
2018-08-12T09:19:47.671Z,3.80
2018-08-12T09:22:15.693Z,3.70
2018-08-12T09:24:43.725Z,5.17
2018-08-12T09:27:11.776Z,4.70
2018-08-12T09:29:39.941Z,5.30
2018-08-12T09:32:08.034Z,3.43
2018-08-12T09:34:36.077Z,5.10
2018-08-12T09:37:05.110Z,4.65
2018-08-12T09:39:33.149Z,3.93
2018-08-12T09:42:01.173Z,3.80
2018-08-12T09:44:29.207Z,4.33
2018-08-12T09:46:57.243Z,4.80
2018-08-12T09:49:25.268Z,5.30
2018-08-12T09:51:53.583Z,3.13
2018-08-12T09:54:21.516Z,4.03
2018-08-12T09:56:49.552Z,2.83
2018-08-12T09:59:17.602Z,2.90
2018-08-12T10:01:45.875Z,2.87
2018-08-12T10:04:13.901Z,3.55
2018-08-12T10:06:42.098Z,2.60
2018-08-12T10:09:11.388Z,2.60
2018-08-12T10:11:39.660Z,3.13
2018-08-12T10:14:08.328Z,3.10
2018-08-12T10:16:36.510Z,2.47
2018-08-12T10:19:05.079Z,2.77
2018-08-12T10:21:33.164Z,2.20
2018-08-12T10:24:01.183Z,2.70
2018-08-12T10:26:29.269Z,2.90
2018-08-12T10:28:57.692Z,3.87
2018-08-12T10:31:25.716Z,2.30
2018-08-12T10:33:53.770Z,3.37
2018-08-12T10:36:21.813Z,2.60
2018-08-12T10:38:50.188Z,2.60
2018-08-12T10:41:18.211Z,2.20
2018-08-12T10:43:46.361Z,2.20
2018-08-12T10:46:14.721Z,3.63
2018-08-12T10:48:42.812Z,2.73
2018-08-12T10:51:10.834Z,3.10
2018-08-12T10:53:38.865Z,3.03
2018-08-12T10:56:07.009Z,2.80
2018-08-12T10:58:35.041Z,4.47
2018-08-12T11:01:03.125Z,3.00
2018-08-12T11:03:31.236Z,3.67
2018-08-12T11:05:59.269Z,2.40
2018-08-12T11:08:27.392Z,3.70
2018-08-12T11:10:55.448Z,2.20
2018-08-12T11:13:23.644Z,2.60
2018-08-12T11:15:51.664Z,2.10
2018-08-12T11:18:19.707Z,2.33
2018-08-12T11:20:47.894Z,2.27
2018-08-12T11:23:15.928Z,2.73
2018-08-12T11:25:43.978Z,2.10
2018-08-12T11:28:12.021Z,2.10
2018-08-12T11:30:40.327Z,1.80
2018-08-12T11:33:08.498Z,2.20
2018-08-12T11:35:36.759Z,1.90
2018-08-12T11:38:04.991Z,1.33
2018-08-12T11:40:33.009Z,1.60
2018-08-12T11:43:01.051Z,1.73
2018-08-12T11:45:29.367Z,2.70
2018-08-12T11:47:57.406Z,1.97
2018-08-12T11:50:25.437Z,2.40
2018-08-12T11:52:53.488Z,1.90
2018-08-12T11:55:21.526Z,1.82
2018-08-12T11:57:49.592Z,1.93
2018-08-12T12:00:19.504Z,1.50
2018-08-12T12:02:48.845Z,1.80
2018-08-12T12:05:16.868Z,1.90
2018-08-12T12:07:45.248Z,1.77
2018-08-12T12:10:15.789Z,2.00
2018-08-12T12:12:45.180Z,1.40
2018-08-12T12:15:14.048Z,1.67
2018-08-12T12:17:42.356Z,1.50
2018-08-12T12:20:11.467Z,1.80
2018-08-12T12:22:40.622Z,1.67
2018-08-12T12:25:10.822Z,1.63
2018-08-12T12:27:38.921Z,2.27
2018-08-12T12:30:08.849Z,1.40
2018-08-12T12:32:36.932Z,1.57
2018-08-12T12:35:05.704Z,1.10
2018-08-12T12:37:33.755Z,1.60
2018-08-12T12:40:01.846Z,1.30
2018-08-12T12:42:29.881Z,1.40
2018-08-12T12:44:58.193Z,1.90
2018-08-12T12:47:26.222Z,1.33
2018-08-12T12:49:54.450Z,1.03
2018-08-12T12:52:22.500Z,1.73
2018-08-12T12:54:50.555Z,1.10
2018-08-12T12:57:18.580Z,1.07
2018-08-12T12:59:46.613Z,1.87
2018-08-12T13:02:14.652Z,1.50
2018-08-12T13:04:42.690Z,2.20
2018-08-12T13:07:10.761Z,1.50
2018-08-12T13:09:38.837Z,2.63
2018-08-12T13:12:07.023Z,1.83
2018-08-12T13:14:35.056Z,1.27
2018-08-12T13:17:03.116Z,1.53
2018-08-12T13:19:31.179Z,1.73
2018-08-12T13:21:59.212Z,1.70
2018-08-12T13:24:27.253Z,1.87
2018-08-12T13:26:55.297Z,1.53
2018-08-12T13:29:23.380Z,1.33
2018-08-12T13:31:51.404Z,3.77
2018-08-12T13:34:19.547Z,2.90
2018-08-12T13:36:47.588Z,2.43
2018-08-12T13:39:15.640Z,1.83
2018-08-12T13:41:43.705Z,7.87
2018-08-12T13:44:11.720Z,1.42
2018-08-12T13:46:39.776Z,1.27
2018-08-12T13:49:07.845Z,7.50
2018-08-12T13:51:35.916Z,3.90
2018-08-12T13:54:05.149Z,3.60
2018-08-12T13:56:33.185Z,2.10
2018-08-12T13:59:01.472Z,2.43
2018-08-12T14:01:29.539Z,2.57
2018-08-12T14:03:57.573Z,8.40
2018-08-12T14:06:25.600Z,1.50
2018-08-12T14:08:53.650Z,2.00
2018-08-12T14:11:21.676Z,1.37
2018-08-12T14:13:49.919Z,1.40
2018-08-12T14:16:17.981Z,1.40
2018-08-12T14:18:46.018Z,1.20
2018-08-12T14:21:14.107Z,1.80
2018-08-12T14:23:42.094Z,3.77
2018-08-12T14:26:10.127Z,1.47
2018-08-12T14:28:38.162Z,1.97
2018-08-12T14:31:06.304Z,1.60
2018-08-12T14:33:34.508Z,1.43
2018-08-12T14:36:02.550Z,2.93
2018-08-12T14:38:30.576Z,3.20
2018-08-12T14:40:58.611Z,1.83
2018-08-12T14:43:26.779Z,1.73
2018-08-12T14:45:54.820Z,1.40
2018-08-12T14:48:22.864Z,1.50
2018-08-12T14:50:50.917Z,4.63
2018-08-12T14:53:18.933Z,3.25
2018-08-12T14:55:46.972Z,2.80
2018-08-12T14:58:15.006Z,2.30
2018-08-12T15:00:43.034Z,2.27
2018-08-12T15:03:11.207Z,1.53
2018-08-12T15:05:39.300Z,2.00
2018-08-12T15:08:07.355Z,3.27
2018-08-12T15:10:35.409Z,1.60
2018-08-12T15:13:03.440Z,1.50
2018-08-12T15:15:31.606Z,1.50
2018-08-12T15:17:59.650Z,3.70
2018-08-12T15:20:27.693Z,2.23
2018-08-12T15:22:55.948Z,2.23
2018-08-12T15:25:23.934Z,5.57
2018-08-12T15:27:52.050Z,1.93
2018-08-12T15:30:20.186Z,1.87
2018-08-12T15:32:48.225Z,1.53
2018-08-12T15:35:16.278Z,1.50
2018-08-12T15:37:44.458Z,1.90
2018-08-12T15:40:13.618Z,1.60
2018-08-12T15:42:42.135Z,2.40
2018-08-12T15:45:12.551Z,4.70
2018-08-12T15:47:41.102Z,2.50
2018-08-12T15:50:09.972Z,2.10
2018-08-12T15:52:38.053Z,2.63
2018-08-12T15:55:06.499Z,1.57
2018-08-12T15:57:34.705Z,1.30
2018-08-12T16:00:03.101Z,1.50
2018-08-12T16:02:31.228Z,1.57
2018-08-12T16:04:59.305Z,1.60
2018-08-12T16:07:27.340Z,1.70
2018-08-12T16:09:55.365Z,1.83
2018-08-12T16:12:23.403Z,1.77
2018-08-12T16:14:51.440Z,1.40
2018-08-12T16:17:19.614Z,2.08
2018-08-12T16:19:47.649Z,1.63
2018-08-12T16:24:51.078Z,1.40
2018-08-12T16:27:19.100Z,2.20
2018-08-12T16:29:47.254Z,3.63
2018-08-12T16:32:15.241Z,1.87
2018-08-12T16:34:43.325Z,2.33
2018-08-12T16:37:11.508Z,1.90
2018-08-12T16:39:39.544Z,2.00
2018-08-12T16:42:07.832Z,1.90
2018-08-12T16:44:35.862Z,1.50
2018-08-12T16:47:05.372Z,1.60
2018-08-12T16:49:33.403Z,1.43
2018-08-12T16:52:01.440Z,1.47
2018-08-12T16:54:29.505Z,1.60
2018-08-12T16:56:57.657Z,1.30
2018-08-12T16:59:25.691Z,2.20
2018-08-12T17:01:53.727Z,1.40
2018-08-12T17:04:21.881Z,2.27
2018-08-12T17:06:49.977Z,1.50
2018-08-12T17:09:17.963Z,1.80
2018-08-12T17:11:45.996Z,1.70
2018-08-12T17:14:14.029Z,1.50
2018-08-12T17:16:42.066Z,2.03
2018-08-12T17:19:10.283Z,1.17
2018-08-12T17:21:38.321Z,1.60
2018-08-12T17:24:06.340Z,1.40
2018-08-12T17:26:34.373Z,1.23
2018-08-12T17:29:02.401Z,1.43
2018-08-12T17:31:30.493Z,1.33
2018-08-12T17:33:58.542Z,1.10
2018-08-12T17:36:26.584Z,1.10
2018-08-12T17:38:54.640Z,1.50
2018-08-12T17:41:22.907Z,1.30
2018-08-12T17:43:50.932Z,1.73
2018-08-12T17:46:18.949Z,1.50
2018-08-12T17:48:47.138Z,1.63
2018-08-12T17:51:15.176Z,2.25
2018-08-12T17:53:43.199Z,2.30
2018-08-12T17:56:11.544Z,1.67
2018-08-12T17:58:39.580Z,1.53
2018-08-12T18:01:07.818Z,1.50
2018-08-12T18:03:35.841Z,1.60
2018-08-12T18:06:04.712Z,1.37
2018-08-12T18:08:32.732Z,1.20
2018-08-12T18:11:00.882Z,1.50
2018-08-12T18:13:28.901Z,1.80
2018-08-12T18:15:56.925Z,1.97
2018-08-12T18:18:24.955Z,1.27
2018-08-12T18:20:52.978Z,1.60
2018-08-12T18:23:21.078Z,1.40
2018-08-12T18:25:49.109Z,1.73
2018-08-12T18:28:17.246Z,3.08
2018-08-12T18:30:45.275Z,2.80
2018-08-12T18:33:13.310Z,1.80
2018-08-12T18:35:41.424Z,1.97
2018-08-12T18:38:09.786Z,1.63
2018-08-12T18:40:37.829Z,2.30
2018-08-12T18:43:05.884Z,2.60
2018-08-12T18:45:33.877Z,2.63
2018-08-12T18:48:02.090Z,2.87
2018-08-12T18:50:30.142Z,2.83
2018-08-12T18:52:58.175Z,2.07
2018-08-12T18:55:26.197Z,1.90
2018-08-12T18:57:54.227Z,2.02
2018-08-12T19:00:22.262Z,2.55
2018-08-12T19:02:50.513Z,2.33
2018-08-12T19:05:18.540Z,2.67
2018-08-12T19:07:46.587Z,2.83
2018-08-12T19:10:14.623Z,2.73
2018-08-12T19:12:43.144Z,2.60
2018-08-12T19:15:12.042Z,2.20
2018-08-12T19:17:40.448Z,5.40
2018-08-12T19:20:09.433Z,6.83
2018-08-12T19:22:38.361Z,6.70
2018-08-12T19:25:06.739Z,6.17
2018-08-12T19:27:35.073Z,4.83
2018-08-12T19:30:03.581Z,4.00
2018-08-12T19:32:31.615Z,3.87
2018-08-12T19:34:59.636Z,3.17
2018-08-12T19:37:27.681Z,3.27
2018-08-12T19:39:55.713Z,4.43
2018-08-12T19:42:23.759Z,5.13
2018-08-12T19:44:52.323Z,3.13
2018-08-12T19:47:20.419Z,2.33
2018-08-12T19:49:48.436Z,1.90
2018-08-12T19:52:16.470Z,1.90
2018-08-12T19:54:44.645Z,1.80
2018-08-12T19:57:13.270Z,1.60
2018-08-12T19:59:41.369Z,1.90
2018-08-12T20:02:09.453Z,1.52
2018-08-12T20:04:37.512Z,1.60
2018-08-12T20:07:05.901Z,2.60
2018-08-12T20:09:33.972Z,3.20
2018-08-12T20:12:02.251Z,4.10
2018-08-12T20:14:30.700Z,8.40
2018-08-12T20:16:58.792Z,10.40
2018-08-12T20:19:27.033Z,14.43
2018-08-12T20:21:55.257Z,13.70
2018-08-12T20:24:23.322Z,6.90
2018-08-12T20:26:51.508Z,5.50
2018-08-12T20:29:19.645Z,4.57
2018-08-12T20:31:47.676Z,3.90
2018-08-12T20:34:15.697Z,3.80
2018-08-12T20:36:44.013Z,4.13
2018-08-12T20:39:13.066Z,3.00
2018-08-12T20:41:41.781Z,2.83
2018-08-12T20:44:09.893Z,2.90
2018-08-12T20:46:37.945Z,2.83
2018-08-12T20:49:06.177Z,2.80
2018-08-12T20:51:34.201Z,2.80
2018-08-12T20:54:02.234Z,2.30
2018-08-12T20:56:30.270Z,3.07
2018-08-12T20:58:58.294Z,2.70
2018-08-12T21:02:01.671Z,2.87
2018-08-12T21:04:29.685Z,3.00
2018-08-12T21:06:57.724Z,3.23
2018-08-12T21:09:25.920Z,3.80
2018-08-12T21:11:54.030Z,3.67
2018-08-12T21:14:22.018Z,4.73
2018-08-12T21:16:50.060Z,5.23
2018-08-12T21:19:18.140Z,3.43
2018-08-12T21:21:46.183Z,3.10
2018-08-12T21:24:14.204Z,2.95
2018-08-12T21:26:42.233Z,3.20
2018-08-12T21:29:10.418Z,3.20
2018-08-12T21:31:38.469Z,3.60
2018-08-12T21:34:06.501Z,2.77
2018-08-12T21:36:34.546Z,2.57
2018-08-12T21:39:02.555Z,2.30
2018-08-12T21:41:30.576Z,2.30
2018-08-12T21:43:58.610Z,2.60
2018-08-12T21:46:26.657Z,2.37
2018-08-12T21:48:54.720Z,2.10
2018-08-12T21:51:22.753Z,2.00
2018-08-12T21:53:50.790Z,2.00
2018-08-12T21:56:18.840Z,2.40
2018-08-12T21:58:46.871Z,2.93
2018-08-12T22:01:14.912Z,2.10
2018-08-12T22:03:42.933Z,2.63
2018-08-12T22:06:10.981Z,1.98
2018-08-12T22:08:39.003Z,2.30
2018-08-12T22:11:07.056Z,2.13
2018-08-12T22:13:35.101Z,3.00
2018-08-12T22:16:03.127Z,2.30
2018-08-12T22:18:31.464Z,2.33
2018-08-12T22:20:59.504Z,2.30
2018-08-12T22:23:27.536Z,2.37
2018-08-12T22:25:55.554Z,2.10
2018-08-12T22:28:27.044Z,2.40
2018-08-12T22:30:55.077Z,2.37
2018-08-12T22:33:23.100Z,2.00
2018-08-12T22:35:51.148Z,2.33
2018-08-12T22:38:19.361Z,2.17
2018-08-12T22:40:47.397Z,2.30
2018-08-12T22:43:15.430Z,2.63
2018-08-12T22:45:43.474Z,2.40
2018-08-12T22:48:11.488Z,2.50
2018-08-12T22:50:39.513Z,2.43
2018-08-12T22:53:07.566Z,2.53
2018-08-12T22:55:35.592Z,2.27
2018-08-12T22:58:04.632Z,2.15
2018-08-12T23:00:32.783Z,2.33
2018-08-12T23:03:01.001Z,2.10
2018-08-12T23:05:29.016Z,2.30
2018-08-12T23:08:01.247Z,2.27
2018-08-12T23:10:29.464Z,2.40
2018-08-12T23:12:57.506Z,2.23
2018-08-12T23:15:36.813Z,2.50
2018-08-12T23:18:04.940Z,2.60
2018-08-12T23:20:32.984Z,2.27
2018-08-12T23:23:01.021Z,2.50
2018-08-12T23:25:35.588Z,2.57
2018-08-12T23:28:03.772Z,2.40
2018-08-12T23:30:31.791Z,2.47
2018-08-12T23:32:59.824Z,2.20
2018-08-12T23:35:27.853Z,2.40
2018-08-12T23:37:55.884Z,2.30
2018-08-12T23:40:23.908Z,2.83
2018-08-12T23:42:52.092Z,2.30
2018-08-12T23:45:20.109Z,2.65
2018-08-12T23:47:48.128Z,2.67
2018-08-12T23:50:16.175Z,2.30
2018-08-12T23:52:44.194Z,3.10
2018-08-12T23:55:12.233Z,2.45
2018-08-12T23:57:40.305Z,2.80
